sensor_id;sensor_type;location;lat;lon;timestamp;temperature;humidity
326;DHT22;150;52.352;14.058;2023-04-03T00:02:18;3.00;34.00
326;DHT22;150;52.352;14.058;2023-04-03T00:04:46;3.00;33.60
326;DHT22;150;52.352;14.058;2023-04-03T00:07:14;3.00;33.60
326;DHT22;150;52.352;14.058;2023-04-03T00:09:41;3.00;33.30
326;DHT22;150;52.352;14.058;2023-04-03T00:12:07;3.00;33.50
326;DHT22;150;52.352;14.058;2023-04-03T00:14:34;2.80;33.80
326;DHT22;150;52.352;14.058;2023-04-03T00:17:06;2.70;34.00
326;DHT22;150;52.352;14.058;2023-04-03T00:19:36;2.70;34.60
326;DHT22;150;52.352;14.058;2023-04-03T00:22:06;2.70;34.60
326;DHT22;150;52.352;14.058;2023-04-03T00:24:41;2.80;34.40
326;DHT22;150;52.352;14.058;2023-04-03T00:27:08;2.80;34.80
326;DHT22;150;52.352;14.058;2023-04-03T00:29:34;2.80;34.70
326;DHT22;150;52.352;14.058;2023-04-03T00:32:01;2.70;34.90
326;DHT22;150;52.352;14.058;2023-04-03T00:34:29;2.70;35.40
326;DHT22;150;52.352;14.058;2023-04-03T00:36:57;2.60;35.10
326;DHT22;150;52.352;14.058;2023-04-03T00:39:27;2.60;35.30
326;DHT22;150;52.352;14.058;2023-04-03T00:41:57;2.50;35.50
326;DHT22;150;52.352;14.058;2023-04-03T00:47:31;2.50;36.00
326;DHT22;150;52.352;14.058;2023-04-03T00:49:59;2.50;36.00
326;DHT22;150;52.352;14.058;2023-04-03T00:52:33;2.50;36.00
326;DHT22;150;52.352;14.058;2023-04-03T00:55:09;2.50;36.10
326;DHT22;150;52.352;14.058;2023-04-03T00:57:37;2.50;36.20
326;DHT22;150;52.352;14.058;2023-04-03T01:00:16;2.40;37.00
326;DHT22;150;52.352;14.058;2023-04-03T01:03:08;2.50;36.20
326;DHT22;150;52.352;14.058;2023-04-03T01:05:36;2.70;36.30
326;DHT22;150;52.352;14.058;2023-04-03T01:08:25;2.50;35.70
326;DHT22;150;52.352;14.058;2023-04-03T01:11:07;2.50;36.20
326;DHT22;150;52.352;14.058;2023-04-03T01:13:34;2.50;35.60
326;DHT22;150;52.352;14.058;2023-04-03T01:16:01;2.50;35.50
326;DHT22;150;52.352;14.058;2023-04-03T01:18:56;2.50;35.60
326;DHT22;150;52.352;14.058;2023-04-03T01:21:54;2.70;36.50
326;DHT22;150;52.352;14.058;2023-04-03T01:24:34;2.40;36.00
326;DHT22;150;52.352;14.058;2023-04-03T01:27:21;2.30;36.20
326;DHT22;150;52.352;14.058;2023-04-03T01:29:49;2.30;36.80
326;DHT22;150;52.352;14.058;2023-04-03T01:32:25;2.30;36.90
326;DHT22;150;52.352;14.058;2023-04-03T01:35:24;2.50;36.50
326;DHT22;150;52.352;14.058;2023-04-03T01:38:02;2.30;36.00
326;DHT22;150;52.352;14.058;2023-04-03T01:40:29;2.40;36.00
326;DHT22;150;52.352;14.058;2023-04-03T01:43:05;2.40;35.80
326;DHT22;150;52.352;14.058;2023-04-03T01:45:41;2.40;36.30
326;DHT22;150;52.352;14.058;2023-04-03T01:48:23;2.40;35.90
326;DHT22;150;52.352;14.058;2023-04-03T01:51:04;2.50;35.90
326;DHT22;150;52.352;14.058;2023-04-03T01:53:40;2.50;35.00
326;DHT22;150;52.352;14.058;2023-04-03T01:56:08;2.40;35.50
326;DHT22;150;52.352;14.058;2023-04-03T01:58:42;2.40;35.70
326;DHT22;150;52.352;14.058;2023-04-03T02:01:17;2.50;35.20
326;DHT22;150;52.352;14.058;2023-04-03T02:03:45;2.50;34.80
326;DHT22;150;52.352;14.058;2023-04-03T02:06:39;2.40;35.30
326;DHT22;150;52.352;14.058;2023-04-03T02:09:06;2.50;34.90
326;DHT22;150;52.352;14.058;2023-04-03T02:11:39;2.50;34.60
326;DHT22;150;52.352;14.058;2023-04-03T02:14:06;2.50;34.10
326;DHT22;150;52.352;14.058;2023-04-03T02:16:40;2.50;34.10
326;DHT22;150;52.352;14.058;2023-04-03T02:19:08;2.50;34.50
326;DHT22;150;52.352;14.058;2023-04-03T02:21:38;2.50;34.40
326;DHT22;150;52.352;14.058;2023-04-03T02:24:07;2.40;34.20
326;DHT22;150;52.352;14.058;2023-04-03T02:26:59;2.40;34.90
326;DHT22;150;52.352;14.058;2023-04-03T02:29:46;2.40;34.70
326;DHT22;150;52.352;14.058;2023-04-03T02:32:21;2.40;34.80
326;DHT22;150;52.352;14.058;2023-04-03T02:35:05;2.40;34.60
326;DHT22;150;52.352;14.058;2023-04-03T02:37:32;2.40;34.70
326;DHT22;150;52.352;14.058;2023-04-03T02:40:08;2.30;34.50
326;DHT22;150;52.352;14.058;2023-04-03T02:42:42;2.40;34.50
326;DHT22;150;52.352;14.058;2023-04-03T02:45:10;2.50;34.90
326;DHT22;150;52.352;14.058;2023-04-03T02:47:46;2.40;34.40
326;DHT22;150;52.352;14.058;2023-04-03T02:50:24;2.40;35.60
326;DHT22;150;52.352;14.058;2023-04-03T02:53:03;2.40;34.40
326;DHT22;150;52.352;14.058;2023-04-03T02:55:44;2.40;34.60
326;DHT22;150;52.352;14.058;2023-04-03T03:01:37;2.30;34.60
326;DHT22;150;52.352;14.058;2023-04-03T03:04:03;2.30;34.70
326;DHT22;150;52.352;14.058;2023-04-03T03:06:31;2.30;34.70
326;DHT22;150;52.352;14.058;2023-04-03T03:09:15;2.30;34.50
326;DHT22;150;52.352;14.058;2023-04-03T03:11:54;2.40;34.60
326;DHT22;150;52.352;14.058;2023-04-03T03:14:21;2.40;34.40
326;DHT22;150;52.352;14.058;2023-04-03T03:16:48;2.30;34.00
326;DHT22;150;52.352;14.058;2023-04-03T03:19:15;2.30;34.30
326;DHT22;150;52.352;14.058;2023-04-03T03:21:43;2.20;34.60
326;DHT22;150;52.352;14.058;2023-04-03T03:24:10;2.10;34.80
326;DHT22;150;52.352;14.058;2023-04-03T03:26:37;2.10;34.80
326;DHT22;150;52.352;14.058;2023-04-03T03:29:04;2.10;34.90
326;DHT22;150;52.352;14.058;2023-04-03T03:31:30;2.00;35.10
326;DHT22;150;52.352;14.058;2023-04-03T03:33:57;2.00;35.50
326;DHT22;150;52.352;14.058;2023-04-03T03:36:24;1.90;35.60
326;DHT22;150;52.352;14.058;2023-04-03T03:38:52;1.90;35.60
326;DHT22;150;52.352;14.058;2023-04-03T03:41:19;1.90;35.90
326;DHT22;150;52.352;14.058;2023-04-03T03:43:46;2.00;36.30
326;DHT22;150;52.352;14.058;2023-04-03T03:46:12;2.00;36.10
326;DHT22;150;52.352;14.058;2023-04-03T03:48:39;2.10;35.90
326;DHT22;150;52.352;14.058;2023-04-03T03:51:05;2.10;35.70
326;DHT22;150;52.352;14.058;2023-04-03T03:53:34;2.10;35.40
326;DHT22;150;52.352;14.058;2023-04-03T03:56:02;2.10;35.60
326;DHT22;150;52.352;14.058;2023-04-03T03:58:30;2.10;35.60
326;DHT22;150;52.352;14.058;2023-04-03T04:01:00;2.10;35.80
326;DHT22;150;52.352;14.058;2023-04-03T04:03:27;2.10;35.80
326;DHT22;150;52.352;14.058;2023-04-03T04:05:54;2.10;35.80
326;DHT22;150;52.352;14.058;2023-04-03T04:08:20;2.10;36.00
326;DHT22;150;52.352;14.058;2023-04-03T04:10:47;2.10;36.10
326;DHT22;150;52.352;14.058;2023-04-03T04:13:15;2.20;35.90
326;DHT22;150;52.352;14.058;2023-04-03T04:15:42;2.10;35.60
326;DHT22;150;52.352;14.058;2023-04-03T04:18:09;2.10;35.80
326;DHT22;150;52.352;14.058;2023-04-03T04:20:36;2.10;36.00
326;DHT22;150;52.352;14.058;2023-04-03T04:23:02;2.10;35.60
326;DHT22;150;52.352;14.058;2023-04-03T04:25:29;2.10;35.60
326;DHT22;150;52.352;14.058;2023-04-03T04:27:55;2.20;35.80
326;DHT22;150;52.352;14.058;2023-04-03T04:30:23;2.20;35.40
326;DHT22;150;52.352;14.058;2023-04-03T04:32:50;2.20;35.30
326;DHT22;150;52.352;14.058;2023-04-03T04:35:17;2.20;35.50
326;DHT22;150;52.352;14.058;2023-04-03T04:37:43;2.20;35.30
326;DHT22;150;52.352;14.058;2023-04-03T04:40:11;2.10;35.50
326;DHT22;150;52.352;14.058;2023-04-03T04:42:38;2.20;35.60
326;DHT22;150;52.352;14.058;2023-04-03T04:45:05;2.20;35.40
326;DHT22;150;52.352;14.058;2023-04-03T04:47:34;2.20;35.70
326;DHT22;150;52.352;14.058;2023-04-03T04:50:00;2.20;35.90
326;DHT22;150;52.352;14.058;2023-04-03T04:52:27;2.20;35.30
326;DHT22;150;52.352;14.058;2023-04-03T04:54:54;2.20;35.60
326;DHT22;150;52.352;14.058;2023-04-03T04:57:22;2.30;35.90
326;DHT22;150;52.352;14.058;2023-04-03T04:59:49;2.30;35.50
326;DHT22;150;52.352;14.058;2023-04-03T05:02:16;2.30;35.40
326;DHT22;150;52.352;14.058;2023-04-03T05:04:43;2.40;35.50
326;DHT22;150;52.352;14.058;2023-04-03T05:07:10;2.40;34.90
326;DHT22;150;52.352;14.058;2023-04-03T05:09:37;2.30;35.40
326;DHT22;150;52.352;14.058;2023-04-03T05:12:04;2.30;35.20
326;DHT22;150;52.352;14.058;2023-04-03T05:14:30;2.40;35.20
326;DHT22;150;52.352;14.058;2023-04-03T05:16:57;2.40;34.90
326;DHT22;150;52.352;14.058;2023-04-03T05:19:24;2.40;34.90
326;DHT22;150;52.352;14.058;2023-04-03T05:21:52;2.40;35.30
326;DHT22;150;52.352;14.058;2023-04-03T05:24:19;2.50;35.10
326;DHT22;150;52.352;14.058;2023-04-03T05:26:45;2.30;35.40
326;DHT22;150;52.352;14.058;2023-04-03T05:29:12;2.40;36.10
326;DHT22;150;52.352;14.058;2023-04-03T05:31:38;2.40;35.60
326;DHT22;150;52.352;14.058;2023-04-03T05:34:05;2.50;35.60
326;DHT22;150;52.352;14.058;2023-04-03T05:36:32;2.60;35.30
326;DHT22;150;52.352;14.058;2023-04-03T05:39:00;2.90;34.80
326;DHT22;150;52.352;14.058;2023-04-03T05:41:27;2.90;33.40
326;DHT22;150;52.352;14.058;2023-04-03T05:43:53;3.00;33.80
326;DHT22;150;52.352;14.058;2023-04-03T05:46:20;3.00;33.20
326;DHT22;150;52.352;14.058;2023-04-03T05:48:47;3.20;33.70
326;DHT22;150;52.352;14.058;2023-04-03T05:51:16;3.20;32.60
326;DHT22;150;52.352;14.058;2023-04-03T05:53:46;3.20;32.50
326;DHT22;150;52.352;14.058;2023-04-03T05:56:15;3.30;32.50
326;DHT22;150;52.352;14.058;2023-04-03T05:58:41;3.30;32.10
326;DHT22;150;52.352;14.058;2023-04-03T06:01:08;3.50;32.00
326;DHT22;150;52.352;14.058;2023-04-03T06:03:35;3.70;31.20
326;DHT22;150;52.352;14.058;2023-04-03T06:06:04;3.70;29.90
326;DHT22;150;52.352;14.058;2023-04-03T06:08:31;3.70;30.20
326;DHT22;150;52.352;14.058;2023-04-03T06:10:58;3.80;29.30
326;DHT22;150;52.352;14.058;2023-04-03T06:13:26;3.70;29.60
326;DHT22;150;52.352;14.058;2023-04-03T06:15:53;3.60;30.00
326;DHT22;150;52.352;14.058;2023-04-03T06:18:19;3.60;29.70
326;DHT22;150;52.352;14.058;2023-04-03T06:20:46;3.60;29.40
326;DHT22;150;52.352;14.058;2023-04-03T06:23:14;3.50;29.50
326;DHT22;150;52.352;14.058;2023-04-03T06:25:41;3.60;29.70
326;DHT22;150;52.352;14.058;2023-04-03T06:28:08;3.70;29.30
326;DHT22;150;52.352;14.058;2023-04-03T06:30:37;3.80;28.80
326;DHT22;150;52.352;14.058;2023-04-03T06:33:03;3.80;29.50
326;DHT22;150;52.352;14.058;2023-04-03T06:35:30;4.00;28.90
326;DHT22;150;52.352;14.058;2023-04-03T06:37:57;4.10;28.80
326;DHT22;150;52.352;14.058;2023-04-03T06:40:25;4.30;28.50
326;DHT22;150;52.352;14.058;2023-04-03T06:42:52;4.30;26.80
326;DHT22;150;52.352;14.058;2023-04-03T06:45:19;4.20;26.60
326;DHT22;150;52.352;14.058;2023-04-03T06:47:48;4.20;26.80
326;DHT22;150;52.352;14.058;2023-04-03T06:50:14;4.20;26.60
326;DHT22;150;52.352;14.058;2023-04-03T06:52:42;4.20;26.10
326;DHT22;150;52.352;14.058;2023-04-03T06:55:09;4.00;26.50
326;DHT22;150;52.352;14.058;2023-04-03T06:57:36;4.10;26.10
326;DHT22;150;52.352;14.058;2023-04-03T07:00:05;4.10;26.30
326;DHT22;150;52.352;14.058;2023-04-03T07:02:32;4.40;25.90
326;DHT22;150;52.352;14.058;2023-04-03T07:05:00;4.40;25.70
326;DHT22;150;52.352;14.058;2023-04-03T07:07:27;4.50;25.20
326;DHT22;150;52.352;14.058;2023-04-03T07:09:56;4.50;25.00
326;DHT22;150;52.352;14.058;2023-04-03T07:12:23;4.30;24.90
326;DHT22;150;52.352;14.058;2023-04-03T07:14:49;4.40;25.00
326;DHT22;150;52.352;14.058;2023-04-03T07:17:16;4.50;24.50
326;DHT22;150;52.352;14.058;2023-04-03T07:19:43;4.40;24.40
326;DHT22;150;52.352;14.058;2023-04-03T07:22:11;4.50;24.40
326;DHT22;150;52.352;14.058;2023-04-03T07:24:38;4.60;23.40
326;DHT22;150;52.352;14.058;2023-04-03T07:27:05;4.60;22.90
326;DHT22;150;52.352;14.058;2023-04-03T07:29:34;4.50;23.20
326;DHT22;150;52.352;14.058;2023-04-03T07:32:00;4.70;23.50
326;DHT22;150;52.352;14.058;2023-04-03T07:34:27;4.60;21.30
326;DHT22;150;52.352;14.058;2023-04-03T07:36:54;4.70;22.60
326;DHT22;150;52.352;14.058;2023-04-03T07:39:22;4.80;22.30
326;DHT22;150;52.352;14.058;2023-04-03T07:41:50;4.60;21.80
326;DHT22;150;52.352;14.058;2023-04-03T07:44:17;4.60;21.60
326;DHT22;150;52.352;14.058;2023-04-03T07:46:44;4.70;21.80
326;DHT22;150;52.352;14.058;2023-04-03T07:49:14;5.00;21.50
326;DHT22;150;52.352;14.058;2023-04-03T07:51:41;5.20;21.20
326;DHT22;150;52.352;14.058;2023-04-03T07:54:07;5.10;21.10
326;DHT22;150;52.352;14.058;2023-04-03T07:56:35;4.90;21.40
326;DHT22;150;52.352;14.058;2023-04-03T07:59:02;5.00;22.30
326;DHT22;150;52.352;14.058;2023-04-03T08:01:29;5.30;22.00
326;DHT22;150;52.352;14.058;2023-04-03T08:03:57;5.70;21.50
326;DHT22;150;52.352;14.058;2023-04-03T08:06:24;5.70;20.00
326;DHT22;150;52.352;14.058;2023-04-03T08:08:51;5.70;21.40
326;DHT22;150;52.352;14.058;2023-04-03T08:11:21;6.00;20.50
326;DHT22;150;52.352;14.058;2023-04-03T08:13:50;6.10;20.40
326;DHT22;150;52.352;14.058;2023-04-03T08:16:20;5.80;19.90
326;DHT22;150;52.352;14.058;2023-04-03T08:18:47;5.80;19.70
326;DHT22;150;52.352;14.058;2023-04-03T08:21:14;5.90;19.20
326;DHT22;150;52.352;14.058;2023-04-03T08:23:41;5.90;18.90
326;DHT22;150;52.352;14.058;2023-04-03T08:26:09;5.80;18.40
326;DHT22;150;52.352;14.058;2023-04-03T08:28:37;5.90;19.10
326;DHT22;150;52.352;14.058;2023-04-03T08:31:07;5.90;18.10
326;DHT22;150;52.352;14.058;2023-04-03T08:33:36;6.10;18.80
326;DHT22;150;52.352;14.058;2023-04-03T08:36:04;6.00;18.10
326;DHT22;150;52.352;14.058;2023-04-03T08:38:31;6.30;17.60
326;DHT22;150;52.352;14.058;2023-04-03T08:41:12;6.30;17.60
326;DHT22;150;52.352;14.058;2023-04-03T08:43:52;6.30;17.60
326;DHT22;150;52.352;14.058;2023-04-03T08:46:25;6.20;16.20
326;DHT22;150;52.352;14.058;2023-04-03T08:48:59;6.30;17.30
326;DHT22;150;52.352;14.058;2023-04-03T08:51:26;6.50;18.50
326;DHT22;150;52.352;14.058;2023-04-03T08:53:57;6.30;17.30
326;DHT22;150;52.352;14.058;2023-04-03T08:56:25;6.30;16.10
326;DHT22;150;52.352;14.058;2023-04-03T08:58:56;6.10;15.50
326;DHT22;150;52.352;14.058;2023-04-03T09:01:27;6.10;16.50
326;DHT22;150;52.352;14.058;2023-04-03T09:03:56;6.00;15.50
326;DHT22;150;52.352;14.058;2023-04-03T09:06:25;6.00;16.60
326;DHT22;150;52.352;14.058;2023-04-03T09:09:10;6.30;15.80
326;DHT22;150;52.352;14.058;2023-04-03T09:11:46;6.10;16.30
326;DHT22;150;52.352;14.058;2023-04-03T09:14:22;6.20;15.30
326;DHT22;150;52.352;14.058;2023-04-03T09:16:55;6.30;16.00
326;DHT22;150;52.352;14.058;2023-04-03T09:19:30;6.80;15.70
326;DHT22;150;52.352;14.058;2023-04-03T09:22:01;7.50;15.10
326;DHT22;150;52.352;14.058;2023-04-03T09:24:28;7.80;11.60
326;DHT22;150;52.352;14.058;2023-04-03T09:26:59;7.90;12.60
326;DHT22;150;52.352;14.058;2023-04-03T09:29:28;7.70;11.60
326;DHT22;150;52.352;14.058;2023-04-03T09:31:58;7.60;12.90
326;DHT22;150;52.352;14.058;2023-04-03T09:34:28;7.40;12.70
326;DHT22;150;52.352;14.058;2023-04-03T09:36:57;7.30;13.80
326;DHT22;150;52.352;14.058;2023-04-03T09:39:26;7.20;13.70
326;DHT22;150;52.352;14.058;2023-04-03T09:41:59;7.30;13.80
326;DHT22;150;52.352;14.058;2023-04-03T09:44:29;7.50;12.90
326;DHT22;150;52.352;14.058;2023-04-03T09:46:57;7.10;12.10
326;DHT22;150;52.352;14.058;2023-04-03T09:49:24;7.00;12.90
326;DHT22;150;52.352;14.058;2023-04-03T09:51:51;6.70;13.40
326;DHT22;150;52.352;14.058;2023-04-03T09:54:40;6.60;13.70
326;DHT22;150;52.352;14.058;2023-04-03T09:57:09;6.60;13.30
326;DHT22;150;52.352;14.058;2023-04-03T09:59:41;6.70;13.40
326;DHT22;150;52.352;14.058;2023-04-03T10:02:32;6.70;13.60
326;DHT22;150;52.352;14.058;2023-04-03T10:05:00;6.70;13.40
326;DHT22;150;52.352;14.058;2023-04-03T10:07:30;6.70;13.20
326;DHT22;150;52.352;14.058;2023-04-03T10:09:58;6.70;13.10
326;DHT22;150;52.352;14.058;2023-04-03T10:12:27;6.70;13.40
326;DHT22;150;52.352;14.058;2023-04-03T10:14:55;6.90;13.20
326;DHT22;150;52.352;14.058;2023-04-03T10:17:30;7.00;12.70
326;DHT22;150;52.352;14.058;2023-04-03T10:20:05;7.10;13.70
326;DHT22;150;52.352;14.058;2023-04-03T10:22:39;7.00;12.30
326;DHT22;150;52.352;14.058;2023-04-03T10:25:14;6.80;13.60
326;DHT22;150;52.352;14.058;2023-04-03T10:27:51;6.60;13.90
326;DHT22;150;52.352;14.058;2023-04-03T10:30:32;6.10;15.10
326;DHT22;150;52.352;14.058;2023-04-03T10:33:20;6.40;16.40
326;DHT22;150;52.352;14.058;2023-04-03T10:35:54;6.60;16.20
326;DHT22;150;52.352;14.058;2023-04-03T10:38:33;6.80;15.80
326;DHT22;150;52.352;14.058;2023-04-03T10:41:07;7.10;15.10
326;DHT22;150;52.352;14.058;2023-04-03T10:43:41;7.30;14.00
326;DHT22;150;52.352;14.058;2023-04-03T10:46:14;7.20;13.70
326;DHT22;150;52.352;14.058;2023-04-03T10:48:56;6.90;14.90
326;DHT22;150;52.352;14.058;2023-04-03T10:51:29;7.00;15.40
326;DHT22;150;52.352;14.058;2023-04-03T10:54:01;7.20;15.00
326;DHT22;150;52.352;14.058;2023-04-03T10:56:36;7.20;14.60
326;DHT22;150;52.352;14.058;2023-04-03T10:59:16;7.10;14.40
326;DHT22;150;52.352;14.058;2023-04-03T11:01:47;7.00;15.20
326;DHT22;150;52.352;14.058;2023-04-03T11:04:19;7.20;15.60
326;DHT22;150;52.352;14.058;2023-04-03T11:06:49;7.10;14.80
326;DHT22;150;52.352;14.058;2023-04-03T11:09:23;7.10;15.20
326;DHT22;150;52.352;14.058;2023-04-03T11:11:52;7.30;14.90
326;DHT22;150;52.352;14.058;2023-04-03T11:14:26;7.10;14.80
326;DHT22;150;52.352;14.058;2023-04-03T11:17:01;7.00;14.60
326;DHT22;150;52.352;14.058;2023-04-03T11:19:35;6.80;15.10
326;DHT22;150;52.352;14.058;2023-04-03T11:22:09;6.60;16.10
326;DHT22;150;52.352;14.058;2023-04-03T11:24:40;6.70;17.00
326;DHT22;150;52.352;14.058;2023-04-03T11:27:15;6.70;17.10
326;DHT22;150;52.352;14.058;2023-04-03T11:29:45;6.70;17.10
326;DHT22;150;52.352;14.058;2023-04-03T11:32:33;6.70;16.30
326;DHT22;150;52.352;14.058;2023-04-03T11:35:06;6.80;16.70
326;DHT22;150;52.352;14.058;2023-04-03T11:37:35;7.10;16.30
326;DHT22;150;52.352;14.058;2023-04-03T11:40:06;7.00;16.50
326;DHT22;150;52.352;14.058;2023-04-03T11:42:36;7.00;16.70
326;DHT22;150;52.352;14.058;2023-04-03T11:45:29;6.80;16.90
326;DHT22;150;52.352;14.058;2023-04-03T11:47:59;6.90;17.50
326;DHT22;150;52.352;14.058;2023-04-03T11:50:42;7.00;17.70
326;DHT22;150;52.352;14.058;2023-04-03T11:53:29;7.00;15.70
326;DHT22;150;52.352;14.058;2023-04-03T11:56:02;6.90;16.10
326;DHT22;150;52.352;14.058;2023-04-03T11:58:31;6.80;16.30
326;DHT22;150;52.352;14.058;2023-04-03T12:01:03;6.80;16.90
326;DHT22;150;52.352;14.058;2023-04-03T12:04:05;6.80;16.80
326;DHT22;150;52.352;14.058;2023-04-03T12:06:58;6.90;17.30
326;DHT22;150;52.352;14.058;2023-04-03T12:09:28;6.60;17.00
326;DHT22;150;52.352;14.058;2023-04-03T12:11:57;6.60;17.10
326;DHT22;150;52.352;14.058;2023-04-03T12:14:26;6.30;17.60
326;DHT22;150;52.352;14.058;2023-04-03T12:16:55;6.30;17.10
326;DHT22;150;52.352;14.058;2023-04-03T12:19:33;6.50;17.70
326;DHT22;150;52.352;14.058;2023-04-03T12:22:10;6.80;17.60
326;DHT22;150;52.352;14.058;2023-04-03T12:24:38;6.90;16.80
326;DHT22;150;52.352;14.058;2023-04-03T12:27:24;6.60;16.20
326;DHT22;150;52.352;14.058;2023-04-03T12:30:03;6.70;15.90
326;DHT22;150;52.352;14.058;2023-04-03T12:32:54;7.00;16.70
326;DHT22;150;52.352;14.058;2023-04-03T12:35:29;7.40;15.60
326;DHT22;150;52.352;14.058;2023-04-03T12:41:11;7.60;14.40
326;DHT22;150;52.352;14.058;2023-04-03T12:43:50;7.30;14.40
326;DHT22;150;52.352;14.058;2023-04-03T12:46:24;7.30;15.70
326;DHT22;150;52.352;14.058;2023-04-03T12:48:54;7.40;15.70
326;DHT22;150;52.352;14.058;2023-04-03T12:51:28;7.50;15.40
326;DHT22;150;52.352;14.058;2023-04-03T12:54:02;7.50;15.70
326;DHT22;150;52.352;14.058;2023-04-03T12:56:31;7.40;14.80
326;DHT22;150;52.352;14.058;2023-04-03T12:59:14;7.30;15.90
326;DHT22;150;52.352;14.058;2023-04-03T13:01:42;7.30;15.70
326;DHT22;150;52.352;14.058;2023-04-03T13:04:10;7.40;16.60
326;DHT22;150;52.352;14.058;2023-04-03T13:06:40;7.50;15.60
326;DHT22;150;52.352;14.058;2023-04-03T13:09:19;7.60;16.30
326;DHT22;150;52.352;14.058;2023-04-03T13:11:48;7.60;16.30
326;DHT22;150;52.352;14.058;2023-04-03T13:14:17;7.90;15.70
326;DHT22;150;52.352;14.058;2023-04-03T13:16:53;8.00;16.20
326;DHT22;150;52.352;14.058;2023-04-03T13:19:19;8.10;15.40
326;DHT22;150;52.352;14.058;2023-04-03T13:21:48;7.60;16.30
326;DHT22;150;52.352;14.058;2023-04-03T13:24:17;7.50;17.10
326;DHT22;150;52.352;14.058;2023-04-03T13:26:44;7.50;17.20
326;DHT22;150;52.352;14.058;2023-04-03T13:29:21;7.80;17.40
326;DHT22;150;52.352;14.058;2023-04-03T13:31:53;7.80;17.30
326;DHT22;150;52.352;14.058;2023-04-03T13:34:21;7.70;16.50
326;DHT22;150;52.352;14.058;2023-04-03T13:36:57;7.70;16.20
326;DHT22;150;52.352;14.058;2023-04-03T13:39:27;7.60;16.40
326;DHT22;150;52.352;14.058;2023-04-03T13:42:02;7.30;17.60
326;DHT22;150;52.352;14.058;2023-04-03T13:44:46;7.20;17.30
326;DHT22;150;52.352;14.058;2023-04-03T13:47:20;7.20;17.20
326;DHT22;150;52.352;14.058;2023-04-03T13:50:02;7.20;17.40
326;DHT22;150;52.352;14.058;2023-04-03T13:52:34;7.40;18.10
326;DHT22;150;52.352;14.058;2023-04-03T13:55:20;7.50;17.30
326;DHT22;150;52.352;14.058;2023-04-03T13:57:55;7.50;17.70
326;DHT22;150;52.352;14.058;2023-04-03T14:00:34;7.80;17.50
326;DHT22;150;52.352;14.058;2023-04-03T14:03:17;7.70;15.80
326;DHT22;150;52.352;14.058;2023-04-03T14:05:45;7.60;16.00
326;DHT22;150;52.352;14.058;2023-04-03T14:08:13;7.40;15.40
326;DHT22;150;52.352;14.058;2023-04-03T14:10:49;7.20;16.60
326;DHT22;150;52.352;14.058;2023-04-03T14:13:19;7.10;17.10
326;DHT22;150;52.352;14.058;2023-04-03T14:15:47;7.20;17.50
326;DHT22;150;52.352;14.058;2023-04-03T14:18:19;7.30;18.20
326;DHT22;150;52.352;14.058;2023-04-03T14:20:46;7.30;18.00
326;DHT22;150;52.352;14.058;2023-04-03T14:23:22;7.30;19.20
326;DHT22;150;52.352;14.058;2023-04-03T14:25:49;7.30;19.00
326;DHT22;150;52.352;14.058;2023-04-03T14:28:18;7.30;19.20
326;DHT22;150;52.352;14.058;2023-04-03T14:30:47;7.20;18.50
326;DHT22;150;52.352;14.058;2023-04-03T14:33:17;7.20;18.70
326;DHT22;150;52.352;14.058;2023-04-03T14:35:44;7.30;19.30
326;DHT22;150;52.352;14.058;2023-04-03T14:38:23;7.40;18.70
326;DHT22;150;52.352;14.058;2023-04-03T14:40:51;7.20;19.50
326;DHT22;150;52.352;14.058;2023-04-03T14:43:18;7.10;19.40
326;DHT22;150;52.352;14.058;2023-04-03T14:45:45;7.00;19.10
326;DHT22;150;52.352;14.058;2023-04-03T14:48:17;6.80;19.30
326;DHT22;150;52.352;14.058;2023-04-03T14:50:44;7.00;19.50
326;DHT22;150;52.352;14.058;2023-04-03T14:53:12;7.20;19.00
326;DHT22;150;52.352;14.058;2023-04-03T14:55:43;7.20;19.00
326;DHT22;150;52.352;14.058;2023-04-03T14:58:12;7.00;19.70
326;DHT22;150;52.352;14.058;2023-04-03T15:00:40;7.00;19.60
326;DHT22;150;52.352;14.058;2023-04-03T15:03:12;6.90;20.50
326;DHT22;150;52.352;14.058;2023-04-03T15:05:39;6.80;19.90
326;DHT22;150;52.352;14.058;2023-04-03T15:08:18;6.70;20.30
326;DHT22;150;52.352;14.058;2023-04-03T15:10:47;6.70;21.40
326;DHT22;150;52.352;14.058;2023-04-03T15:13:14;6.60;21.40
326;DHT22;150;52.352;14.058;2023-04-03T15:15:42;6.40;22.20
326;DHT22;150;52.352;14.058;2023-04-03T15:18:18;6.50;21.60
326;DHT22;150;52.352;14.058;2023-04-03T15:20:45;6.40;22.10
326;DHT22;150;52.352;14.058;2023-04-03T15:23:14;6.50;21.30
326;DHT22;150;52.352;14.058;2023-04-03T15:25:42;6.50;21.10
326;DHT22;150;52.352;14.058;2023-04-03T15:28:17;6.60;22.10
326;DHT22;150;52.352;14.058;2023-04-03T15:30:44;6.70;21.30
326;DHT22;150;52.352;14.058;2023-04-03T15:33:10;6.80;21.40
326;DHT22;150;52.352;14.058;2023-04-03T15:35:37;6.80;21.80
326;DHT22;150;52.352;14.058;2023-04-03T15:38:04;6.70;21.50
326;DHT22;150;52.352;14.058;2023-04-03T15:40:30;6.70;21.30
326;DHT22;150;52.352;14.058;2023-04-03T15:42:57;6.70;21.20
326;DHT22;150;52.352;14.058;2023-04-03T15:45:28;6.70;21.60
326;DHT22;150;52.352;14.058;2023-04-03T15:47:55;6.60;21.20
326;DHT22;150;52.352;14.058;2023-04-03T15:50:22;6.60;21.40
326;DHT22;150;52.352;14.058;2023-04-03T15:52:49;6.60;21.40
326;DHT22;150;52.352;14.058;2023-04-03T15:55:19;6.60;21.20
326;DHT22;150;52.352;14.058;2023-04-03T15:57:46;6.80;21.10
326;DHT22;150;52.352;14.058;2023-04-03T16:00:13;6.60;21.20
326;DHT22;150;52.352;14.058;2023-04-03T16:02:42;6.70;21.80
326;DHT22;150;52.352;14.058;2023-04-03T16:05:10;6.70;21.40
326;DHT22;150;52.352;14.058;2023-04-03T16:07:38;6.60;22.10
326;DHT22;150;52.352;14.058;2023-04-03T16:10:06;6.60;22.10
326;DHT22;150;52.352;14.058;2023-04-03T16:12:33;6.30;22.80
326;DHT22;150;52.352;14.058;2023-04-03T16:15:00;6.10;22.90
326;DHT22;150;52.352;14.058;2023-04-03T16:17:27;6.00;23.20
326;DHT22;150;52.352;14.058;2023-04-03T16:19:56;5.80;23.10
326;DHT22;150;52.352;14.058;2023-04-03T16:22:24;5.90;23.60
326;DHT22;150;52.352;14.058;2023-04-03T16:24:51;6.00;23.60
326;DHT22;150;52.352;14.058;2023-04-03T16:27:17;6.00;23.10
326;DHT22;150;52.352;14.058;2023-04-03T16:29:44;6.10;23.20
326;DHT22;150;52.352;14.058;2023-04-03T16:32:12;6.10;23.50
326;DHT22;150;52.352;14.058;2023-04-03T16:34:39;6.00;23.60
326;DHT22;150;52.352;14.058;2023-04-03T16:37:07;6.10;23.80
326;DHT22;150;52.352;14.058;2023-04-03T16:39:35;6.20;23.70
326;DHT22;150;52.352;14.058;2023-04-03T16:42:01;6.20;22.80
326;DHT22;150;52.352;14.058;2023-04-03T16:44:28;6.20;22.80
326;DHT22;150;52.352;14.058;2023-04-03T16:46:55;6.00;22.30
326;DHT22;150;52.352;14.058;2023-04-03T16:49:22;6.10;22.90
326;DHT22;150;52.352;14.058;2023-04-03T16:51:48;6.00;22.50
326;DHT22;150;52.352;14.058;2023-04-03T16:54:16;6.10;22.90
326;DHT22;150;52.352;14.058;2023-04-03T16:56:43;6.20;22.80
326;DHT22;150;52.352;14.058;2023-04-03T16:59:10;6.20;23.50
326;DHT22;150;52.352;14.058;2023-04-03T17:01:36;6.10;23.60
326;DHT22;150;52.352;14.058;2023-04-03T17:04:04;6.10;23.70
326;DHT22;150;52.352;14.058;2023-04-03T17:06:31;6.10;23.80
326;DHT22;150;52.352;14.058;2023-04-03T17:08:58;6.10;23.90